createdAt,value
2023-02-14T00:02:06.999Z,12.52
2023-02-14T00:04:33.996Z,10.88
2023-02-14T00:09:29.083Z,9.55
2023-02-14T00:11:55.681Z,11.05
2023-02-14T00:14:41.057Z,11.00
2023-02-14T00:17:07.557Z,12.27
2023-02-14T00:19:35.932Z,13.20
2023-02-14T00:22:03.547Z,13.95
2023-02-14T00:24:30.189Z,12.50
2023-02-14T00:26:57.095Z,11.80
2023-02-14T00:29:27.855Z,12.40
2023-02-14T00:31:54.843Z,10.32
2023-02-14T00:34:23.948Z,15.23
2023-02-14T00:36:50.704Z,11.68
2023-02-14T00:39:18.607Z,11.32
2023-02-14T00:41:45.343Z,13.02
2023-02-14T00:44:15.177Z,13.52
2023-02-14T00:46:41.931Z,14.45
2023-02-14T00:49:08.613Z,15.52
2023-02-14T00:51:38.061Z,15.15
2023-02-14T00:54:04.946Z,16.63
2023-02-14T00:56:32.239Z,16.55
2023-02-14T00:58:59.126Z,15.60
2023-02-14T01:01:27.946Z,12.68
2023-02-14T01:03:54.755Z,14.32
2023-02-14T01:06:23.762Z,12.48
2023-02-14T01:08:51.484Z,12.60
2023-02-14T01:11:20.575Z,10.90
2023-02-14T01:13:48.491Z,12.52
2023-02-14T01:16:18.566Z,10.43
2023-02-14T01:18:46.241Z,12.50
2023-02-14T01:21:24.843Z,10.38
2023-02-14T01:23:54.629Z,10.60
2023-02-14T01:26:22.547Z,13.32
2023-02-14T01:28:49.781Z,11.95
2023-02-14T01:31:18.252Z,12.25
2023-02-14T01:33:47.080Z,12.93
2023-02-14T01:36:22.437Z,13.52
2023-02-14T01:38:52.631Z,13.73
2023-02-14T01:41:19.716Z,14.85
2023-02-14T01:46:28.566Z,8.88
2023-02-14T01:49:01.870Z,11.75
2023-02-14T01:51:29.339Z,11.52
2023-02-14T01:53:56.924Z,10.30
2023-02-14T01:56:35.922Z,11.02
2023-02-14T01:59:06.350Z,14.27
2023-02-14T02:01:33.025Z,14.68
2023-02-14T02:04:07.384Z,12.02
2023-02-14T02:07:05.784Z,12.68
2023-02-14T02:09:42.268Z,11.32
2023-02-14T02:12:09.004Z,11.85
2023-02-14T02:14:36.820Z,12.15
2023-02-14T02:17:21.394Z,11.55
2023-02-14T02:20:17.648Z,10.98
2023-02-14T02:23:25.808Z,9.32
2023-02-14T02:25:55.081Z,13.63
2023-02-14T02:29:07.095Z,12.98
2023-02-14T02:31:45.193Z,13.65
2023-02-14T02:34:36.612Z,13.68
2023-02-14T02:37:12.188Z,12.20
2023-02-14T02:40:20.263Z,11.60
2023-02-14T02:42:53.623Z,11.45
2023-02-14T02:46:17.670Z,10.50
2023-02-14T02:49:01.192Z,12.10
2023-02-14T02:51:55.612Z,12.57
2023-02-14T02:54:34.979Z,11.27
2023-02-14T02:57:05.524Z,11.27
2023-02-14T02:59:41.536Z,10.00
2023-02-14T03:02:13.765Z,11.20
2023-02-14T03:04:54.361Z,12.88
2023-02-14T03:07:34.793Z,12.82
2023-02-14T03:10:06.272Z,15.68
2023-02-14T03:12:37.442Z,16.63
2023-02-14T03:15:30.182Z,18.67
2023-02-14T03:18:22.264Z,14.05
2023-02-14T03:21:04.885Z,17.35
2023-02-14T03:23:38.400Z,16.42
2023-02-14T03:26:22.046Z,17.33
2023-02-14T03:29:08.716Z,17.08
2023-02-14T03:32:02.698Z,17.67
2023-02-14T03:34:48.906Z,13.88
2023-02-14T03:37:22.218Z,13.88
2023-02-14T03:40:11.431Z,15.23
2023-02-14T03:42:41.608Z,14.18
2023-02-14T03:45:13.176Z,15.57
2023-02-14T03:47:43.159Z,14.57
2023-02-14T03:50:16.779Z,16.55
2023-02-14T03:52:44.818Z,15.07
2023-02-14T03:55:15.379Z,13.88
2023-02-14T03:58:06.486Z,14.25
2023-02-14T04:00:37.568Z,14.75
2023-02-14T04:03:11.817Z,14.23
2023-02-14T04:05:43.558Z,16.27
2023-02-14T04:08:11.940Z,17.65
2023-02-14T04:10:40.100Z,14.98
2023-02-14T04:13:06.703Z,16.75
2023-02-14T04:15:33.355Z,12.02
2023-02-14T04:18:18.972Z,12.32
2023-02-14T04:20:45.498Z,11.35
2023-02-14T04:23:12.056Z,10.98
2023-02-14T04:25:40.339Z,10.65
2023-02-14T04:28:06.848Z,10.57
2023-02-14T04:30:33.400Z,10.80
2023-02-14T04:33:00.087Z,13.23
2023-02-14T04:35:26.695Z,12.77
2023-02-14T04:37:53.241Z,11.80
2023-02-14T04:40:19.996Z,11.43
2023-02-14T04:42:46.889Z,10.95
2023-02-14T04:45:13.878Z,13.20
2023-02-14T04:50:07.666Z,7.88
2023-02-14T04:55:00.742Z,9.48
2023-02-14T04:57:27.321Z,9.73
2023-02-14T04:59:53.853Z,10.25
2023-02-14T05:02:20.432Z,10.60
2023-02-14T05:04:49.629Z,11.20
2023-02-14T05:07:16.390Z,11.52
2023-02-14T05:09:42.938Z,13.02
2023-02-14T05:12:09.713Z,11.20
2023-02-14T05:14:36.240Z,12.93
2023-02-14T05:17:03.107Z,12.32
2023-02-14T05:19:29.734Z,13.95
2023-02-14T05:21:56.264Z,12.20
2023-02-14T05:24:22.896Z,10.85
2023-02-14T05:26:49.707Z,12.25
2023-02-14T05:29:16.269Z,11.52
2023-02-14T05:31:42.897Z,14.88
2023-02-14T05:34:09.779Z,13.80
2023-02-14T05:36:36.308Z,14.65
2023-02-14T05:39:03.000Z,14.68
2023-02-14T05:41:29.886Z,14.32
2023-02-14T05:43:56.431Z,15.30
2023-02-14T05:46:23.279Z,12.75
2023-02-14T05:51:16.595Z,11.50
2023-02-14T05:53:43.299Z,13.55
2023-02-14T05:56:09.869Z,13.55
2023-02-14T05:58:36.502Z,13.40
2023-02-14T06:01:03.270Z,17.00
2023-02-14T06:03:30.051Z,13.68
2023-02-14T06:05:56.593Z,15.13
2023-02-14T06:08:23.418Z,16.27
2023-02-14T06:10:50.114Z,19.77
2023-02-14T06:13:16.794Z,20.00
2023-02-14T06:15:43.325Z,20.10
2023-02-14T06:18:10.098Z,15.98
2023-02-14T06:20:36.825Z,15.30
2023-02-14T06:23:03.754Z,15.05
2023-02-14T06:25:30.340Z,14.18
2023-02-14T06:27:58.549Z,14.75
2023-02-14T06:30:25.679Z,17.48
2023-02-14T06:32:52.296Z,18.85
2023-02-14T06:35:19.012Z,16.83
2023-02-14T06:37:45.718Z,15.85
2023-02-14T06:40:13.010Z,16.42
2023-02-14T06:42:40.044Z,18.75
2023-02-14T06:45:07.403Z,16.63
2023-02-14T06:47:35.202Z,17.67
2023-02-14T06:50:04.261Z,16.02
2023-02-14T06:52:32.240Z,15.93
2023-02-14T06:54:58.766Z,15.38
2023-02-14T06:57:25.345Z,15.55
2023-02-14T06:59:51.954Z,15.13
2023-02-14T07:02:18.773Z,17.90
2023-02-14T07:04:45.660Z,16.48
2023-02-14T07:07:12.241Z,15.55
2023-02-14T07:09:38.924Z,13.90
2023-02-14T07:12:05.705Z,12.15
2023-02-14T07:14:32.214Z,12.25
2023-02-14T07:16:58.781Z,13.00
2023-02-14T07:19:25.407Z,14.85
2023-02-14T07:21:52.001Z,12.70
2023-02-14T07:24:18.521Z,14.32
2023-02-14T07:26:45.092Z,13.45
2023-02-14T07:29:11.768Z,15.07
2023-02-14T07:31:38.500Z,15.50
2023-02-14T07:34:05.098Z,17.27
2023-02-14T07:36:32.915Z,18.58
2023-02-14T07:38:59.662Z,15.70
2023-02-14T07:41:26.269Z,19.75
2023-02-14T07:43:52.844Z,19.02
2023-02-14T07:46:22.546Z,19.33
2023-02-14T07:48:52.516Z,19.27
2023-02-14T07:51:19.276Z,19.65
2023-02-14T07:53:47.962Z,17.27
2023-02-14T07:56:14.737Z,16.08
2023-02-14T07:58:43.823Z,17.38
2023-02-14T08:01:12.395Z,14.45
2023-02-14T08:03:38.933Z,15.90
2023-02-14T08:06:07.787Z,17.70
2023-02-14T08:08:34.480Z,20.25
2023-02-14T08:11:01.661Z,22.58
2023-02-14T08:13:28.531Z,21.60
2023-02-14T08:16:09.849Z,21.98
2023-02-14T08:18:41.290Z,19.60
2023-02-14T08:21:11.313Z,17.35
2023-02-14T08:23:38.239Z,19.33
2023-02-14T08:28:33.007Z,14.73
2023-02-14T08:31:00.909Z,15.27
2023-02-14T08:33:28.258Z,17.30
2023-02-14T08:35:55.224Z,15.80
2023-02-14T08:38:22.465Z,19.05
2023-02-14T08:40:49.158Z,19.63
2023-02-14T08:43:15.900Z,19.35
2023-02-14T08:45:42.937Z,18.92
2023-02-14T08:50:38.227Z,13.38
2023-02-14T08:53:09.681Z,18.95
2023-02-14T08:55:36.656Z,17.63
2023-02-14T08:58:04.736Z,18.77
2023-02-14T09:00:32.511Z,19.70
2023-02-14T09:02:59.398Z,17.42
2023-02-14T09:05:26.507Z,17.88
2023-02-14T09:07:55.979Z,15.10
2023-02-14T09:10:23.398Z,15.55
2023-02-14T09:12:50.436Z,16.17
2023-02-14T09:17:43.726Z,16.13
2023-02-14T09:20:12.161Z,14.52
2023-02-14T09:22:38.798Z,15.68
2023-02-14T09:25:06.259Z,14.70
2023-02-14T09:27:32.963Z,12.25
2023-02-14T09:29:59.788Z,16.25
2023-02-14T09:32:27.160Z,16.05
2023-02-14T09:34:53.831Z,16.42
2023-02-14T09:37:20.524Z,17.10
2023-02-14T09:39:47.072Z,15.20
2023-02-14T09:43:02.147Z,16.33
2023-02-14T09:45:32.299Z,14.57
2023-02-14T09:48:17.204Z,14.07
2023-02-14T09:50:47.365Z,19.55
2023-02-14T09:53:26.008Z,14.90
2023-02-14T09:56:31.036Z,13.73
2023-02-14T10:01:38.369Z,13.77
2023-02-14T10:04:23.201Z,13.18
2023-02-14T10:07:15.405Z,15.35
2023-02-14T10:10:30.831Z,15.88
2023-02-14T10:13:40.306Z,14.32
2023-02-14T10:16:14.163Z,16.20
2023-02-14T10:18:49.916Z,15.13
2023-02-14T10:21:25.450Z,16.20
2023-02-14T10:24:01.994Z,14.82
2023-02-14T10:26:40.122Z,13.73
2023-02-14T10:29:12.871Z,15.40
2023-02-14T10:31:55.562Z,15.20
2023-02-14T10:34:38.991Z,14.25
2023-02-14T10:37:24.608Z,16.13
2023-02-14T10:40:05.876Z,13.35
2023-02-14T10:42:47.437Z,17.27
2023-02-14T10:45:45.027Z,14.25
2023-02-14T10:48:17.762Z,17.02
2023-02-14T10:51:03.211Z,15.73
2023-02-14T10:54:19.316Z,14.98
2023-02-14T10:59:25.870Z,12.30
2023-02-14T11:01:54.695Z,13.90
2023-02-14T11:04:23.912Z,14.40
2023-02-14T11:06:50.925Z,13.98
2023-02-14T11:09:18.259Z,14.13
2023-02-14T11:11:54.378Z,14.88
2023-02-14T11:14:24.010Z,15.20
2023-02-14T11:16:51.994Z,16.63
2023-02-14T11:19:23.880Z,17.48
2023-02-14T11:21:52.184Z,15.77
2023-02-14T11:24:39.769Z,15.80
2023-02-14T11:27:12.380Z,16.00
2023-02-14T11:29:38.862Z,15.43
2023-02-14T11:32:21.596Z,15.70
2023-02-14T11:34:57.892Z,14.75
2023-02-14T11:37:28.613Z,16.33
2023-02-14T11:39:57.981Z,17.35
2023-02-14T11:42:54.605Z,17.85
2023-02-14T11:45:36.336Z,17.92
2023-02-14T11:48:37.635Z,16.13
2023-02-14T11:51:14.987Z,13.88
2023-02-14T11:53:51.942Z,17.88
2023-02-14T11:56:20.407Z,14.48
2023-02-14T11:58:52.779Z,15.35
2023-02-14T12:01:26.849Z,14.55
2023-02-14T12:03:55.488Z,16.35
2023-02-14T12:06:30.243Z,18.52
2023-02-14T12:09:21.688Z,18.02
2023-02-14T12:12:02.590Z,15.60
2023-02-14T12:14:34.503Z,15.50
2023-02-14T12:17:27.451Z,14.63
2023-02-14T12:20:03.512Z,17.27
2023-02-14T12:22:35.930Z,16.33
2023-02-14T12:25:21.371Z,13.82
2023-02-14T12:27:53.733Z,14.18
2023-02-14T12:30:24.952Z,15.50
2023-02-14T12:32:54.328Z,13.40
2023-02-14T12:35:46.247Z,14.43
2023-02-14T12:38:36.529Z,15.68
2023-02-14T12:41:12.198Z,15.15
2023-02-14T12:43:52.440Z,16.95
2023-02-14T12:46:30.307Z,17.90
2023-02-14T12:49:03.204Z,14.20
2023-02-14T12:51:50.865Z,14.70
2023-02-14T12:55:16.014Z,15.43
2023-02-14T12:58:02.323Z,16.83
2023-02-14T13:01:01.403Z,15.00
2023-02-14T13:03:31.243Z,16.10
2023-02-14T13:06:30.630Z,15.38
2023-02-14T13:09:06.109Z,14.15
2023-02-14T13:11:46.708Z,14.57
2023-02-14T13:14:45.681Z,15.70
2023-02-14T13:17:41.073Z,16.33
2023-02-14T13:20:45.388Z,14.25
2023-02-14T13:23:29.930Z,15.68
2023-02-14T13:26:01.381Z,13.70
2023-02-14T13:28:30.786Z,18.60
2023-02-14T13:30:59.900Z,16.00
2023-02-14T13:33:40.183Z,15.52
2023-02-14T13:36:12.599Z,14.38
2023-02-14T13:38:52.217Z,16.38
2023-02-14T13:41:21.428Z,14.90
2023-02-14T13:44:08.250Z,14.82
2023-02-14T13:46:35.146Z,14.63
2023-02-14T13:49:22.023Z,15.77
2023-02-14T13:51:51.040Z,15.20
2023-02-14T13:54:44.944Z,14.15
2023-02-14T13:57:29.409Z,15.57
2023-02-14T14:00:17.956Z,15.68
2023-02-14T14:02:48.876Z,14.52
2023-02-14T14:05:30.585Z,16.70
2023-02-14T14:08:27.561Z,16.10
2023-02-14T14:10:57.603Z,15.50
2023-02-14T14:13:42.655Z,17.55
2023-02-14T14:16:27.458Z,16.98
2023-02-14T14:18:58.588Z,15.52
2023-02-14T14:21:29.747Z,15.63
2023-02-14T14:24:20.807Z,14.18
2023-02-14T14:26:56.424Z,14.23
2023-02-14T14:29:31.015Z,16.50
2023-02-14T14:31:58.519Z,14.93
2023-02-14T14:34:28.236Z,13.98
2023-02-14T14:37:05.826Z,14.70
2023-02-14T14:39:34.637Z,13.98
2023-02-14T14:42:09.810Z,14.25
2023-02-14T14:44:44.982Z,14.88
2023-02-14T14:47:24.497Z,13.98
2023-02-14T14:50:00.312Z,13.13
2023-02-14T14:52:34.908Z,13.45
2023-02-14T14:55:02.961Z,11.77
2023-02-14T14:57:30.110Z,14.70
2023-02-14T15:00:18.931Z,13.05
2023-02-14T15:03:07.085Z,12.77
2023-02-14T15:05:40.472Z,12.57
2023-02-14T15:08:17.566Z,13.43
2023-02-14T15:10:49.591Z,13.00
2023-02-14T15:13:35.046Z,14.10
2023-02-14T15:16:03.819Z,12.70
2023-02-14T15:18:30.679Z,12.55
2023-02-14T15:20:57.424Z,11.95
2023-02-14T15:23:25.118Z,12.40
2023-02-14T15:25:52.344Z,11.60
2023-02-14T15:28:31.731Z,13.65
2023-02-14T15:31:03.808Z,12.18
2023-02-14T15:33:32.214Z,11.27
2023-02-14T15:36:04.223Z,13.38
2023-02-14T15:38:32.112Z,11.48
2023-02-14T15:41:00.248Z,9.75
2023-02-14T15:43:32.601Z,11.05
2023-02-14T15:46:15.116Z,11.75
2023-02-14T15:48:42.337Z,11.65
2023-02-14T15:51:16.801Z,10.13
2023-02-14T15:53:53.649Z,8.98
2023-02-14T15:59:00.317Z,7.30
2023-02-14T16:01:27.665Z,8.52
2023-02-14T16:03:59.619Z,8.32
2023-02-14T16:06:37.383Z,7.00
2023-02-14T16:09:26.061Z,7.50
2023-02-14T16:11:53.648Z,9.02
2023-02-14T16:14:29.390Z,9.73
2023-02-14T16:17:06.084Z,7.82
2023-02-14T16:19:35.445Z,8.30
2023-02-14T16:22:02.157Z,6.75
2023-02-14T16:24:28.801Z,7.63
2023-02-14T16:26:56.393Z,8.82
2023-02-14T16:29:22.912Z,7.82
2023-02-14T16:32:14.557Z,7.72
2023-02-14T16:34:41.737Z,9.30
2023-02-14T16:39:39.318Z,8.27
2023-02-14T16:42:06.257Z,7.97
2023-02-14T16:44:33.112Z,9.40
2023-02-14T16:47:01.949Z,9.25
2023-02-14T16:49:28.500Z,9.73
2023-02-14T16:51:55.371Z,8.30
2023-02-14T16:56:53.400Z,6.00
2023-02-14T16:59:19.951Z,8.18
2023-02-14T17:01:46.593Z,7.85
2023-02-14T17:04:13.411Z,8.20
2023-02-14T17:06:43.511Z,10.07
2023-02-14T17:09:13.651Z,8.98
2023-02-14T17:11:45.206Z,8.90
2023-02-14T17:14:17.838Z,8.82
2023-02-14T17:16:44.410Z,9.15
2023-02-14T17:19:11.788Z,8.63
2023-02-14T17:21:38.689Z,10.38
2023-02-14T17:24:05.481Z,8.18
2023-02-14T17:26:33.757Z,9.20
2023-02-14T17:29:00.413Z,8.25
2023-02-14T17:31:28.574Z,8.65
2023-02-14T17:33:55.490Z,10.13
2023-02-14T17:36:24.148Z,9.63
2023-02-14T17:38:53.489Z,9.65
2023-02-14T17:41:25.698Z,9.25
2023-02-14T17:44:00.132Z,8.77
2023-02-14T17:46:31.027Z,9.63
2023-02-14T17:48:57.900Z,10.25
2023-02-14T17:51:24.958Z,9.85
2023-02-14T17:53:51.848Z,8.77
2023-02-14T17:56:24.532Z,10.35
2023-02-14T17:58:57.751Z,10.02
2023-02-14T18:01:26.682Z,9.50
2023-02-14T18:03:55.971Z,10.65
2023-02-14T18:06:23.091Z,10.48
2023-02-14T18:08:52.997Z,9.38
2023-02-14T18:11:20.887Z,8.80
2023-02-14T18:13:47.678Z,8.98
2023-02-14T18:16:16.462Z,9.32
2023-02-14T18:18:43.364Z,11.50
2023-02-14T18:21:12.326Z,8.98
2023-02-14T18:23:39.311Z,10.00
2023-02-14T18:26:09.932Z,10.95
2023-02-14T18:28:36.638Z,8.32
2023-02-14T18:31:12.045Z,8.57
2023-02-14T18:33:39.756Z,9.20
2023-02-14T18:36:10.079Z,10.02
2023-02-14T18:38:36.841Z,8.40
2023-02-14T18:41:04.511Z,10.55
2023-02-14T18:43:31.287Z,9.63
2023-02-14T18:46:10.242Z,9.85
2023-02-14T18:48:36.903Z,10.25
2023-02-14T18:51:23.528Z,9.05
2023-02-14T18:53:52.239Z,9.98
2023-02-14T18:56:22.176Z,9.27
2023-02-14T18:58:52.720Z,9.98
2023-02-14T19:01:23.291Z,11.10
2023-02-14T19:03:51.262Z,11.77
2023-02-14T19:06:18.239Z,10.25
2023-02-14T19:11:18.414Z,9.48
2023-02-14T19:13:51.218Z,8.18
2023-02-14T19:16:24.375Z,9.77
2023-02-14T19:18:53.356Z,9.13
2023-02-14T19:21:25.687Z,10.65
2023-02-14T19:23:54.361Z,10.18
2023-02-14T19:26:23.704Z,11.65
2023-02-14T19:28:54.877Z,10.45
2023-02-14T19:31:21.861Z,9.98
2023-02-14T19:36:18.521Z,8.43
2023-02-14T19:38:48.207Z,9.38
2023-02-14T19:41:18.793Z,8.98
2023-02-14T19:43:46.452Z,9.10
2023-02-14T19:46:14.547Z,9.23
2023-02-14T19:48:41.513Z,10.15
2023-02-14T19:51:08.387Z,9.90
2023-02-14T19:53:34.969Z,8.80
2023-02-14T19:56:01.845Z,8.98
2023-02-14T19:58:28.646Z,9.00
2023-02-14T20:01:00.014Z,10.05
2023-02-14T20:03:30.607Z,8.90
2023-02-14T20:05:57.224Z,10.05
2023-02-14T20:08:23.963Z,10.15
2023-02-14T20:10:50.528Z,8.68
2023-02-14T20:13:17.056Z,8.38
2023-02-14T20:15:45.504Z,9.50
2023-02-14T20:18:12.013Z,9.02
2023-02-14T20:20:57.194Z,8.38
2023-02-14T20:23:23.802Z,8.30
2023-02-14T20:25:50.342Z,8.77
2023-02-14T20:28:16.888Z,10.68
2023-02-14T20:30:43.525Z,11.10
2023-02-14T20:33:10.138Z,10.88
2023-02-14T20:35:40.687Z,10.52
2023-02-14T20:38:07.870Z,11.25
2023-02-14T20:40:39.190Z,10.35
2023-02-14T20:43:06.272Z,9.60
2023-02-14T20:50:31.246Z,7.60
2023-02-14T20:52:58.185Z,7.25
2023-02-14T20:55:27.036Z,8.73
2023-02-14T20:57:53.924Z,9.32
2023-02-14T21:00:20.691Z,10.02
2023-02-14T21:02:47.230Z,9.95
2023-02-14T21:05:18.500Z,9.73
2023-02-14T21:07:45.210Z,9.63
2023-02-14T21:10:11.725Z,9.80
2023-02-14T21:12:38.672Z,8.82
2023-02-14T21:15:06.979Z,9.65
2023-02-14T21:17:33.984Z,8.73
2023-02-14T21:20:00.569Z,9.75
2023-02-14T21:22:27.214Z,9.55
2023-02-14T21:24:53.759Z,10.32
2023-02-14T21:27:20.285Z,11.25
2023-02-14T21:29:46.857Z,12.23
2023-02-14T21:32:13.503Z,10.57
2023-02-14T21:34:40.233Z,11.60
2023-02-14T21:37:06.740Z,12.88
2023-02-14T21:39:35.711Z,13.35
2023-02-14T21:42:02.404Z,12.30
2023-02-14T21:44:47.327Z,13.35
2023-02-14T21:47:13.924Z,13.10
2023-02-14T21:49:59.164Z,12.07
2023-02-14T21:52:25.713Z,12.55
2023-02-14T21:54:52.458Z,15.50
2023-02-14T21:57:19.013Z,16.90
2023-02-14T21:59:45.550Z,18.65
2023-02-14T22:02:12.444Z,18.90
2023-02-14T22:04:39.303Z,19.73
2023-02-14T22:07:07.871Z,17.85
2023-02-14T22:09:34.543Z,16.35
2023-02-14T22:12:01.104Z,16.55
2023-02-14T22:14:29.282Z,15.43
2023-02-14T22:16:55.991Z,13.15
2023-02-14T22:19:24.932Z,12.07
2023-02-14T22:21:51.422Z,11.05
2023-02-14T22:24:18.015Z,11.68
2023-02-14T22:26:44.598Z,10.82
2023-02-14T22:29:12.489Z,11.27
2023-02-14T22:31:43.629Z,10.05
2023-02-14T22:34:15.987Z,10.18
2023-02-14T22:36:42.568Z,10.48
2023-02-14T22:39:12.636Z,9.95
2023-02-14T22:41:39.575Z,11.50
2023-02-14T22:44:06.318Z,11.48
2023-02-14T22:46:33.352Z,12.15
2023-02-14T22:51:29.994Z,10.50
2023-02-14T22:53:59.397Z,11.20
2023-02-14T22:56:27.496Z,12.13
2023-02-14T22:58:55.875Z,11.63
2023-02-14T23:01:23.635Z,11.88
2023-02-14T23:03:57.131Z,11.40
2023-02-14T23:06:25.910Z,11.02
2023-02-14T23:08:53.511Z,9.65
2023-02-14T23:11:23.072Z,11.48
2023-02-14T23:14:08.235Z,10.65
2023-02-14T23:17:04.025Z,10.05
2023-02-14T23:19:51.376Z,10.55
2023-02-14T23:22:27.242Z,10.25
2023-02-14T23:24:57.252Z,9.90
2023-02-14T23:27:27.306Z,11.43
2023-02-14T23:29:53.816Z,11.68
2023-02-14T23:32:20.445Z,10.90
2023-02-14T23:34:47.218Z,10.07
2023-02-14T23:37:14.291Z,10.55
2023-02-14T23:42:13.698Z,10.13
2023-02-14T23:44:40.667Z,10.77
2023-02-14T23:47:08.632Z,11.02
2023-02-14T23:49:37.321Z,12.20
2023-02-14T23:52:06.462Z,15.07
2023-02-14T23:54:33.534Z,17.88
2023-02-14T23:59:26.629Z,13.13
